Time;durP1;ratioP1;P1;durP2;ratioP2;P2;SDS_P1;SDS_P2;PMS_P1;PMS_P2;Temp;Humidity;BMP_temperature;BMP_pressure;BME280_temperature;BME280_humidity;BME280_pressure;Samples;Min_cycle;Max_cycle;Signal;HPM_P1;HPM_P2
2021/05/10 00:00:51;;;;;;;0.70;0.70;;;;;;;19.04;67.89;98964.41;5015216;28;20492;-53
2021/05/10 00:03:18;;;;;;;0.40;0.20;;;;;;;19.05;68.59;98966.13;5017369;28;20495;-53
2021/05/10 00:05:44;;;;;;;0.40;0.20;;;;;;;19.30;66.44;98965.75;5010767;28;20503;-53
2021/05/10 00:08:11;;;;;;;0.40;0.20;;;;;;;19.33;65.01;98973.59;5015397;28;20448;-53
2021/05/10 00:10:38;;;;;;;0.40;0.20;;;;;;;19.31;65.42;98964.75;5015188;28;20444;-53
2021/05/10 00:13:06;;;;;;;0.40;0.20;;;;;;;19.24;66.85;98982.47;5015130;28;20530;-53
2021/05/10 00:15:33;;;;;;;0.40;0.20;;;;;;;19.25;67.42;98989.56;5014959;28;20499;-53
2021/05/10 00:18:03;;;;;;;0.40;0.30;;;;;;;19.14;69.02;98982.38;5015022;28;20950;-52
2021/05/10 00:20:31;;;;;;;0.50;0.50;;;;;;;19.19;67.85;98965.84;5001500;28;20492;-52
2021/05/10 00:22:58;;;;;;;0.40;0.20;;;;;;;18.68;70.61;98971.06;5015063;28;20468;-52
2021/05/10 00:25:25;;;;;;;10.70;2.10;;;;;;;18.78;71.28;98970.19;5014928;28;20456;-52
2021/05/10 00:27:52;;;;;;;0.40;0.20;;;;;;;18.88;70.75;98971.09;5014951;28;20507;-53
2021/05/10 00:30:19;;;;;;;0.40;0.20;;;;;;;18.85;70.98;98973.22;5014776;28;20448;-52
2021/05/10 00:32:46;;;;;;;0.40;0.20;;;;;;;18.94;70.93;98975.13;5014581;28;20468;-52
2021/05/10 00:35:13;;;;;;;0.40;0.20;;;;;;;18.83;72.28;98972.47;5014554;28;20816;-52
2021/05/10 00:37:39;;;;;;;0.40;0.20;;;;;;;18.98;70.72;98965.81;4997453;28;20452;-52
2021/05/10 00:40:11;;;;;;;0.40;0.30;;;;;;;18.67;72.42;98959.47;5014517;28;20488;-52
2021/05/10 00:42:38;;;;;;;0.50;0.30;;;;;;;18.91;69.40;98962.78;5014386;28;21089;-52
2021/05/10 00:45:05;;;;;;;0.40;0.20;;;;;;;18.79;72.44;98974.59;5014404;28;20472;-52
2021/05/10 00:47:32;;;;;;;0.40;0.20;;;;;;;19.14;71.21;98939.28;4996992;28;20460;-52
2021/05/10 00:49:58;;;;;;;0.40;0.20;;;;;;;18.64;72.96;98930.09;4999967;28;20449;-52
2021/05/10 00:52:25;;;;;;;0.47;0.33;;;;;;;18.37;75.08;98932.38;5014408;28;20473;-54
2021/05/10 00:54:53;;;;;;;0.50;0.20;;;;;;;18.58;75.01;98933.25;5014538;28;20448;-54
2021/05/10 00:57:20;;;;;;;0.40;0.20;;;;;;;18.79;73.45;98952.19;5001695;28;20499;-55
2021/05/10 00:59:49;;;;;;;0.40;0.30;;;;;;;18.86;74.01;98953.38;5014087;28;20910;-55
2021/05/10 01:02:16;;;;;;;0.40;0.20;;;;;;;18.82;74.31;98963.56;5025544;28;20578;-55
2021/05/10 01:04:42;;;;;;;0.40;0.20;;;;;;;18.88;74.82;98948.72;4994843;28;20450;-55
2021/05/10 01:07:08;;;;;;;0.40;0.20;;;;;;;18.87;76.81;98964.00;5008479;28;20457;-55
2021/05/10 01:09:34;;;;;;;0.83;0.83;;;;;;;18.51;77.01;98916.78;5014700;28;20506;-53
2021/05/10 01:12:01;;;;;;;0.40;0.20;;;;;;;18.30;78.83;98840.53;5014237;28;20534;-53
2021/05/10 01:14:27;;;;;;;0.40;0.20;;;;;;;18.71;75.87;98806.59;5014558;28;20837;-56
2021/05/10 01:16:53;;;;;;;0.40;0.20;;;;;;;19.19;72.16;98788.03;5014045;28;20456;-56
2021/05/10 01:19:22;;;;;;;0.40;0.20;;;;;;;19.26;72.30;98775.72;5006800;28;20896;-54
2021/05/10 01:21:49;;;;;;;0.40;0.20;;;;;;;19.30;72.79;98785.22;5008296;28;20477;-55
2021/05/10 01:24:17;;;;;;;0.50;0.30;;;;;;;19.35;73.94;98774.03;5013846;28;20460;-54
2021/05/10 01:26:43;;;;;;;0.40;0.23;;;;;;;19.39;73.29;98780.84;5013635;28;20449;-54
2021/05/10 01:29:10;;;;;;;0.40;0.20;;;;;;;19.42;72.99;98777.88;5013791;28;20449;-54
2021/05/10 01:31:36;;;;;;;0.40;0.20;;;;;;;19.43;72.63;98782.28;5013403;28;20522;-54
2021/05/10 01:34:04;;;;;;;0.40;0.20;;;;;;;19.82;66.34;98773.34;5013752;28;20445;-54
2021/05/10 01:36:30;;;;;;;0.60;0.60;;;;;;;20.12;62.98;98780.47;5013731;28;20475;-54
2021/05/10 01:38:56;;;;;;;0.40;0.20;;;;;;;20.22;62.81;98785.00;5013649;28;20492;-54
2021/05/10 01:41:22;;;;;;;0.60;0.60;;;;;;;20.29;62.87;98789.72;4995812;28;21907;-54
2021/05/10 01:43:48;;;;;;;0.40;0.20;;;;;;;20.12;64.11;98798.50;5013272;28;21057;-54
2021/05/10 01:46:14;;;;;;;0.80;0.67;;;;;;;19.24;71.98;98815.41;5013551;28;20465;-54
2021/05/10 01:48:40;;;;;;;0.47;0.30;;;;;;;18.80;76.67;98832.75;5005172;28;20450;-54
2021/05/10 01:51:06;;;;;;;0.40;0.20;;;;;;;19.22;74.64;98849.72;4991623;28;20456;-54
2021/05/10 01:53:33;;;;;;;0.40;0.20;;;;;;;19.35;74.05;98857.59;5013757;28;20449;-54
2021/05/10 01:55:59;;;;;;;0.40;0.20;;;;;;;19.33;73.56;98849.63;5011194;28;20445;-54
2021/05/10 01:58:25;;;;;;;0.40;0.20;;;;;;;19.19;74.28;98845.47;5001981;28;20444;-54
2021/05/10 02:00:52;;;;;;;0.40;0.30;;;;;;;19.22;74.45;98847.88;5012775;28;20492;-55
2021/05/10 02:03:20;;;;;;;0.40;0.20;;;;;;;19.19;73.67;98842.75;4993481;28;20473;-54
2021/05/10 02:05:48;;;;;;;0.60;0.60;;;;;;;18.73;75.09;98845.00;5008414;28;20453;-54
2021/05/10 02:08:15;;;;;;;0.50;0.47;;;;;;;18.48;77.18;98844.34;5012919;28;20942;-55
2021/05/10 02:10:47;;;;;;;0.40;0.20;;;;;;;18.34;78.84;98861.66;5012770;28;20457;-54
2021/05/10 02:13:13;;;;;;;0.40;0.20;;;;;;;18.34;78.69;98872.41;5012887;28;20479;-54
2021/05/10 02:15:45;;;;;;;0.40;0.20;;;;;;;18.29;79.45;98866.56;5013058;28;20452;-54
2021/05/10 02:18:13;;;;;;;3.23;0.80;;;;;;;17.89;80.99;98871.69;5012971;28;20510;-54
2021/05/10 02:20:41;;;;;;;0.50;0.33;;;;;;;17.74;82.60;98865.72;4982135;28;20488;-54
2021/05/10 02:23:09;;;;;;;0.40;0.20;;;;;;;17.80;82.84;98866.19;5012759;28;20475;-52
2021/05/10 02:25:41;;;;;;;0.50;0.40;;;;;;;17.92;82.62;98860.69;5013018;28;20453;-52
2021/05/10 02:28:09;;;;;;;0.50;0.30;;;;;;;17.66;83.63;98870.81;5013004;28;20503;-52
2021/05/10 02:30:40;;;;;;;0.40;0.20;;;;;;;17.39;86.33;98865.81;5012607;28;20861;-53
2021/05/10 02:33:11;;;;;;;0.60;0.60;;;;;;;17.06;90.17;98863.13;5012757;28;20473;-52
2021/05/10 02:35:37;;;;;;;0.40;0.20;;;;;;;17.02;90.67;98869.72;4993210;28;20450;-51
2021/05/10 02:38:05;;;;;;;0.40;0.20;;;;;;;17.32;89.27;98878.03;5000744;28;20518;-52
2021/05/10 02:40:31;;;;;;;0.40;0.20;;;;;;;17.49;87.91;98892.81;5002365;28;20489;-52
2021/05/10 02:43:01;;;;;;;0.40;0.20;;;;;;;17.50;89.15;98894.53;5020190;23;20595;-59
2021/05/10 02:45:27;;;;;;;0.40;0.20;;;;;;;17.48;90.44;98897.34;4995029;28;20476;-59
2021/05/10 02:47:53;;;;;;;0.60;0.60;;;;;;;17.44;88.34;98898.56;5012410;28;21007;-59
2021/05/10 02:50:22;;;;;;;0.40;0.20;;;;;;;17.34;90.14;98892.19;5012650;28;20476;-59
2021/05/10 02:52:50;;;;;;;0.40;0.20;;;;;;;17.13;88.94;98875.06;5012386;28;20472;-59
2021/05/10 02:55:17;;;;;;;0.40;0.30;;;;;;;17.41;87.98;98869.28;5012540;28;20510;-59
2021/05/10 02:57:44;;;;;;;0.73;0.73;;;;;;;17.58;87.91;98867.06;4999381;28;20526;-59
2021/05/10 03:00:14;;;;;;;0.40;0.20;;;;;;;17.82;87.57;98878.56;5012469;28;20538;-59
2021/05/10 03:02:40;;;;;;;0.40;0.20;;;;;;;17.67;88.88;98890.50;5019631;28;20469;-59
2021/05/10 03:05:09;;;;;;;0.40;0.20;;;;;;;17.91;87.18;98914.56;5002790;28;20988;-59
2021/05/10 03:07:36;;;;;;;0.50;0.30;;;;;;;17.88;87.14;98904.94;5012509;28;20449;-59
2021/05/10 03:10:04;;;;;;;0.43;0.30;;;;;;;17.23;90.04;98894.88;5012355;28;20792;-59
2021/05/10 03:12:31;;;;;;;0.40;0.20;;;;;;;17.30;89.97;98889.88;5013524;28;20476;-59
2021/05/10 03:14:58;;;;;;;0.40;0.20;;;;;;;17.61;88.29;98875.72;5016480;28;20544;-59
2021/05/10 03:17:25;;;;;;;0.50;0.40;;;;;;;17.32;90.85;98886.09;5016025;28;20448;-59
2021/05/10 03:19:51;;;;;;;0.50;0.40;;;;;;;17.40;89.37;98875.59;5004283;28;21064;-59
2021/05/10 03:22:17;;;;;;;0.40;0.30;;;;;;;17.19;91.15;98866.56;4997637;28;20816;-59
2021/05/10 03:24:43;;;;;;;0.40;0.20;;;;;;;17.33;89.65;98862.78;5016254;28;20456;-59
2021/05/10 03:27:09;;;;;;;0.40;0.30;;;;;;;17.58;88.68;98872.44;5015981;28;21034;-59
2021/05/10 03:29:36;;;;;;;0.40;0.20;;;;;;;17.17;92.08;98874.72;5016082;28;20821;-59
2021/05/10 03:32:02;;;;;;;0.40;0.20;;;;;;;17.25;90.94;98862.53;4998459;28;20468;-57
2021/05/10 03:34:28;;;;;;;0.40;0.20;;;;;;;17.54;89.68;98895.13;5016757;28;20804;-59
2021/05/10 03:36:55;;;;;;;0.40;0.20;;;;;;;17.31;90.36;98888.91;5016176;28;20452;-57
2021/05/10 03:39:21;;;;;;;0.40;0.30;;;;;;;17.31;89.83;98883.53;5015957;28;20496;-57
2021/05/10 03:41:47;;;;;;;0.40;0.20;;;;;;;17.27;90.52;98916.97;5015616;28;20919;-58
2021/05/10 03:44:13;;;;;;;0.40;0.20;;;;;;;17.02;92.49;98918.91;4998563;28;20456;-58
2021/05/10 03:46:39;;;;;;;0.40;0.20;;;;;;;17.04;92.57;98925.00;5015557;28;20452;-58
2021/05/10 03:49:05;;;;;;;0.40;0.20;;;;;;;17.02;92.63;98955.63;5004372;28;20457;-58
2021/05/10 03:51:31;;;;;;;0.40;0.20;;;;;;;17.05;93.02;99006.41;5014098;28;20448;-58
2021/05/10 03:53:58;;;;;;;0.40;0.20;;;;;;;16.97;92.45;99074.09;5015534;28;20506;-58
2021/05/10 03:56:24;;;;;;;0.40;0.20;;;;;;;17.33;86.45;99064.25;5010214;28;20445;-58
2021/05/10 03:58:50;;;;;;;0.73;0.67;;;;;;;17.53;84.98;99079.69;5007801;28;20490;-58
2021/05/10 04:01:16;;;;;;;0.40;0.20;;;;;;;17.65;83.35;99073.38;5018427;28;20517;-58
2021/05/10 04:03:48;;;;;;;0.40;0.20;;;;;;;17.83;82.88;99092.66;5012300;28;20453;-58
2021/05/10 04:09:43;;;;;;;4.00;1.30;;;;;;;17.90;82.29;99087.63;4982382;28;20511;-58
2021/05/10 04:15:13;;;;;;;0.40;0.20;;;;;;;18.05;81.50;99078.38;5015309;28;20801;-57
2021/05/10 04:17:39;;;;;;;0.40;0.20;;;;;;;18.09;81.00;99063.69;5015738;28;20448;-57
2021/05/10 04:20:06;;;;;;;0.40;0.30;;;;;;;18.21;79.47;99053.78;5003267;28;21026;-57
2021/05/10 04:22:32;;;;;;;0.50;0.40;;;;;;;18.10;80.29;99035.00;5015509;28;20515;-57
2021/05/10 04:24:59;;;;;;;0.50;0.40;;;;;;;18.29;78.72;99059.44;5014767;28;20448;-57
2021/05/10 04:27:26;;;;;;;0.40;0.20;;;;;;;18.26;80.07;99059.69;4998785;28;20543;-58
2021/05/10 04:29:53;;;;;;;0.40;0.20;;;;;;;18.11;81.47;99075.22;5016841;28;20519;-57
2021/05/10 04:32:19;;;;;;;0.40;0.20;;;;;;;18.04;85.34;99098.16;5014653;28;20572;-57
2021/05/10 04:34:48;;;;;;;0.40;0.30;;;;;;;18.02;87.71;99111.75;5014845;28;20548;-57
2021/05/10 04:37:15;;;;;;;0.40;0.20;;;;;;;17.41;90.80;99078.81;5014967;28;20893;-57
2021/05/10 04:39:41;;;;;;;0.40;0.30;;;;;;;17.55;90.48;99082.28;5014525;28;20492;-57
2021/05/10 04:42:07;;;;;;;0.40;0.20;;;;;;;18.09;84.69;99081.66;4996871;28;21055;-57
2021/05/10 04:44:34;;;;;;;0.40;0.20;;;;;;;18.34;81.62;99093.03;5014472;28;20459;-57
2021/05/10 04:47:00;;;;;;;0.70;0.57;;;;;;;18.39;83.06;99078.38;4997086;28;20457;-57
2021/05/10 04:49:26;;;;;;;0.40;0.30;;;;;;;18.43;84.62;99069.09;4983731;28;20458;-57
2021/05/10 04:51:52;;;;;;;1.03;1.03;;;;;;;18.79;79.28;99067.97;5014251;28;21001;-57
2021/05/10 04:54:18;;;;;;;0.40;0.20;;;;;;;18.80;79.42;99067.84;5014272;28;20499;-57
2021/05/10 04:56:44;;;;;;;0.40;0.20;;;;;;;18.58;82.54;99084.84;5006356;28;20500;-57
2021/05/10 04:59:10;;;;;;;0.40;0.20;;;;;;;18.57;81.87;99098.44;4995957;28;20454;-57
2021/05/10 05:01:36;;;;;;;0.40;0.20;;;;;;;18.31;84.68;99087.06;5019857;28;20506;-57
2021/05/10 05:04:03;;;;;;;0.40;0.20;;;;;;;18.42;85.41;99094.28;5006062;28;20815;-57
2021/05/10 05:06:29;;;;;;;0.40;0.20;;;;;;;18.60;84.53;99099.03;5013967;28;20452;-57
2021/05/10 05:08:55;;;;;;;0.40;0.20;;;;;;;18.60;81.73;99096.34;5013906;28;20507;-58
2021/05/10 05:11:22;;;;;;;0.40;0.20;;;;;;;18.59;81.53;99101.84;5013945;28;20462;-57
2021/05/10 05:13:48;;;;;;;0.40;0.20;;;;;;;18.68;80.12;99106.53;5013910;28;20503;-57
2021/05/10 05:16:14;;;;;;;0.40;0.20;;;;;;;18.58;80.49;99101.00;5013923;28;20898;-58
2021/05/10 05:18:40;;;;;;;0.40;0.30;;;;;;;18.91;80.54;99099.25;4994945;28;20452;-58
2021/05/10 05:21:06;;;;;;;0.50;0.40;;;;;;;18.68;80.55;99109.22;5002217;28;21004;-57
2021/05/10 05:23:34;;;;;;;0.67;0.67;;;;;;;18.60;81.26;99114.31;5013403;28;21048;-57
2021/05/10 05:26:03;;;;;;;0.50;0.30;;;;;;;18.60;82.01;99117.88;5013457;28;20952;-57
2021/05/10 05:28:30;;;;;;;0.40;0.30;;;;;;;18.52;82.13;99132.94;5013318;28;20457;-57
2021/05/10 05:30:58;;;;;;;0.40;0.20;;;;;;;18.39;83.97;99134.91;5013826;28;20449;-58
2021/05/10 05:33:25;;;;;;;0.40;0.30;;;;;;;18.43;83.78;99147.97;5013220;28;20535;-57
2021/05/10 05:35:52;;;;;;;0.50;0.40;;;;;;;18.45;83.06;99151.41;5012482;28;20502;-58
2021/05/10 05:38:18;;;;;;;0.40;0.20;;;;;;;18.52;83.62;99143.72;5013235;28;20449;-57
2021/05/10 05:40:46;;;;;;;0.40;0.20;;;;;;;18.54;82.25;99155.19;5012897;28;20859;-57
2021/05/10 05:43:13;;;;;;;0.40;0.20;;;;;;;18.89;78.87;99160.47;5012673;28;20488;-57
2021/05/10 05:45:40;;;;;;;0.40;0.20;;;;;;;19.11;75.70;99159.59;5012978;28;20511;-57
2021/05/10 05:48:09;;;;;;;0.40;0.20;;;;;;;19.29;73.79;99151.81;5009949;28;20515;-57
2021/05/10 05:50:37;;;;;;;0.40;0.20;;;;;;;19.31;72.98;99139.91;5003956;28;20543;-57
2021/05/10 05:53:04;;;;;;;0.40;0.20;;;;;;;19.40;72.21;99149.09;5012867;28;20481;-58
2021/05/10 05:55:30;;;;;;;0.40;0.20;;;;;;;19.49;71.63;99151.03;5012924;28;20453;-57
2021/05/10 05:57:57;;;;;;;0.40;0.20;;;;;;;19.32;71.99;99147.03;4999428;28;20453;-57
2021/05/10 06:00:24;;;;;;;0.40;0.20;;;;;;;19.50;71.48;99156.28;5013206;28;20492;-57
2021/05/10 06:02:50;;;;;;;0.40;0.20;;;;;;;19.50;71.83;99174.31;5019098;28;20473;-57
2021/05/10 06:05:17;;;;;;;0.73;0.73;;;;;;;19.58;71.80;99174.53;5004801;28;20453;-57
2021/05/10 06:07:49;;;;;;;0.40;0.20;;;;;;;19.73;70.87;99191.25;5012795;28;20448;-57
2021/05/10 06:10:20;;;;;;;0.40;0.20;;;;;;;19.72;70.86;99187.72;5012812;28;21011;-57
2021/05/10 06:12:50;;;;;;;0.40;0.20;;;;;;;19.63;71.03;99188.50;5013103;28;20468;-57
2021/05/10 06:15:18;;;;;;;0.40;0.20;;;;;;;19.70;71.13;99184.28;5012908;28;20681;-58
2021/05/10 06:17:45;;;;;;;0.50;0.50;;;;;;;19.76;70.91;99186.50;5012883;28;20449;-57
2021/05/10 06:20:12;;;;;;;0.40;0.20;;;;;;;19.64;71.56;99190.22;4999629;28;20997;-57
2021/05/10 06:22:40;;;;;;;0.93;0.93;;;;;;;19.70;71.19;99195.09;5012868;28;20480;-57
2021/05/10 06:25:08;;;;;;;0.40;0.20;;;;;;;19.56;71.68;99202.63;5013093;28;20444;-57
2021/05/10 06:27:35;;;;;;;0.40;0.20;;;;;;;19.57;71.82;99191.69;5013180;28;20810;-57
2021/05/10 06:30:06;;;;;;;0.40;0.20;;;;;;;19.62;71.64;99202.13;5012694;28;20544;-57
2021/05/10 06:32:32;;;;;;;1.50;1.40;;;;;;;19.53;71.56;99199.16;5012849;28;20472;-57
2021/05/10 06:35:00;;;;;;;0.40;0.20;;;;;;;19.59;71.59;99188.88;5012674;28;20456;-57
2021/05/10 06:37:29;;;;;;;0.40;0.30;;;;;;;19.80;71.53;99206.81;5012447;28;20933;-58
2021/05/10 06:39:57;;;;;;;0.40;0.20;;;;;;;19.79;71.40;99221.28;5012795;28;20500;-57
2021/05/10 06:42:24;;;;;;;0.40;0.20;;;;;;;19.83;72.16;99228.13;5012722;28;20484;-57
2021/05/10 06:44:51;;;;;;;0.50;0.30;;;;;;;19.97;71.24;99229.66;5012671;28;20456;-57
2021/05/10 06:47:17;;;;;;;0.40;0.20;;;;;;;20.09;71.09;99222.38;5012602;28;20870;-57
2021/05/10 06:49:44;;;;;;;0.40;0.20;;;;;;;20.00;71.55;99223.16;4999302;28;20448;-57
2021/05/10 06:52:10;;;;;;;0.40;0.20;;;;;;;19.88;71.73;99229.59;5012485;28;20472;-57
2021/05/10 06:54:36;;;;;;;0.40;0.20;;;;;;;20.12;71.62;99222.97;5012371;28;20453;-57
2021/05/10 06:57:03;;;;;;;0.40;0.20;;;;;;;20.01;71.70;99220.34;5002279;28;20445;-57
2021/05/10 06:59:29;;;;;;;0.40;0.20;;;;;;;20.33;71.21;99214.88;5009678;28;20456;-58
2021/05/10 07:01:56;;;;;;;0.40;0.20;;;;;;;20.73;70.97;99218.72;5021189;28;20541;-57
2021/05/10 07:04:23;;;;;;;0.40;0.20;;;;;;;21.02;69.95;99230.50;5001497;28;20548;-57
2021/05/10 07:06:50;;;;;;;0.40;0.20;;;;;;;21.54;69.20;99232.13;5012456;28;20822;-58
2021/05/10 07:09:16;;;;;;;0.40;0.20;;;;;;;21.68;67.16;99216.47;5012677;28;20460;-58
2021/05/10 07:11:42;;;;;;;0.40;0.20;;;;;;;21.85;66.70;99213.91;5012510;28;20476;-58
2021/05/10 07:14:08;;;;;;;0.40;0.20;;;;;;;21.49;66.64;99220.00;5012204;28;20938;-57
2021/05/10 07:16:35;;;;;;;0.40;0.20;;;;;;;21.79;66.78;99232.56;5012295;28;20456;-57
2021/05/10 07:19:01;;;;;;;0.40;0.20;;;;;;;22.09;66.11;99250.56;5007840;28;20954;-57
2021/05/10 07:21:27;;;;;;;0.40;0.30;;;;;;;22.30;65.10;99235.00;5003276;28;20499;-58
2021/05/10 07:23:53;;;;;;;0.40;0.20;;;;;;;21.67;65.73;99249.94;5012162;28;20468;-57
2021/05/10 07:26:21;;;;;;;0.40;0.20;;;;;;;21.62;66.51;99242.22;5012394;28;20949;-57
2021/05/10 07:28:48;;;;;;;0.40;0.20;;;;;;;21.43;66.21;99229.53;4994600;28;20530;-57
2021/05/10 07:31:14;;;;;;;0.40;0.20;;;;;;;21.55;66.54;99227.56;5012204;28;20914;-57
2021/05/10 07:33:41;;;;;;;0.40;0.20;;;;;;;21.46;67.70;99244.59;5011712;28;20503;-57
2021/05/10 07:36:08;;;;;;;0.40;0.20;;;;;;;21.44;67.70;99266.38;5012278;28;20449;-57
2021/05/10 07:38:35;;;;;;;0.40;0.30;;;;;;;21.54;67.40;99261.88;5011993;28;20452;-57
2021/05/10 07:41:01;;;;;;;0.40;0.20;;;;;;;21.61;66.07;99258.59;5011902;28;20495;-57
2021/05/10 07:43:27;;;;;;;3.17;2.70;;;;;;;21.35;65.89;99264.50;5011611;28;21016;-57
2021/05/10 07:45:53;;;;;;;0.60;0.60;;;;;;;21.26;66.70;99273.44;5011938;28;20506;-57
2021/05/10 07:48:19;;;;;;;0.40;0.20;;;;;;;20.89;66.32;99273.09;5007202;28;20453;-57
2021/05/10 07:50:46;;;;;;;0.40;0.20;;;;;;;20.87;67.31;99267.84;5003657;28;20448;-57
2021/05/10 07:53:13;;;;;;;0.40;0.20;;;;;;;20.66;68.08;99278.66;5011626;28;20518;-57
2021/05/10 07:55:39;;;;;;;0.40;0.20;;;;;;;20.67;68.95;99271.41;5012074;28;20448;-57
2021/05/10 07:58:06;;;;;;;0.40;0.20;;;;;;;20.55;68.87;99280.56;4998838;28;20448;-57
2021/05/10 08:00:36;;;;;;;0.40;0.20;;;;;;;20.85;68.01;99283.31;5015369;28;20544;-57
2021/05/10 08:03:10;;;;;;;0.40;0.20;;;;;;;20.40;68.50;99282.69;5019411;28;21070;-57
2021/05/10 08:05:38;;;;;;;0.40;0.20;;;;;;;20.57;68.13;99292.97;5010145;28;20505;-57
2021/05/10 08:08:06;;;;;;;0.40;0.20;;;;;;;20.68;67.89;99289.31;5015284;28;20459;-57
2021/05/10 08:10:33;;;;;;;0.40;0.20;;;;;;;20.51;67.89;99279.97;5015127;28;20452;-57
2021/05/10 08:12:59;;;;;;;0.40;0.20;;;;;;;20.57;68.37;99281.31;5014953;28;20837;-57
2021/05/10 08:15:25;;;;;;;0.40;0.20;;;;;;;20.62;68.36;99287.16;5014816;28;20510;-57
2021/05/10 08:17:52;;;;;;;0.40;0.20;;;;;;;20.57;68.39;99294.81;5014846;28;20536;-57
2021/05/10 08:20:38;;;;;;;0.40;0.20;;;;;;;20.68;67.42;99300.13;5001479;28;21004;-58
2021/05/10 08:23:05;;;;;;;0.40;0.20;;;;;;;20.46;67.29;99305.66;5014756;28;20472;-57
2021/05/10 08:25:31;;;;;;;0.40;0.20;;;;;;;20.36;67.92;99306.41;5014633;28;20949;-57
2021/05/10 08:27:57;;;;;;;0.40;0.20;;;;;;;20.41;66.14;99312.28;5014578;28;20449;-57
2021/05/10 08:30:24;;;;;;;0.40;0.20;;;;;;;20.35;66.76;99320.03;5014594;28;20456;-57
2021/05/10 08:32:51;;;;;;;0.40;0.20;;;;;;;20.59;66.30;99301.78;5014681;28;20542;-57
2021/05/10 08:35:17;;;;;;;0.40;0.20;;;;;;;20.22;67.02;99303.16;5014773;28;20452;-57
2021/05/10 08:37:43;;;;;;;0.40;0.20;;;;;;;20.31;66.39;99324.84;4991133;28;20461;-57
2021/05/10 08:40:10;;;;;;;0.40;0.20;;;;;;;20.18;66.08;99337.66;5005650;28;20492;-57
2021/05/10 08:42:36;;;;;;;0.40;0.20;;;;;;;20.10;67.27;99349.06;5019114;23;20501;-53
2021/05/10 08:45:04;;;;;;;0.40;0.20;;;;;;;20.28;66.48;99343.97;5014384;28;20488;-53
2021/05/10 08:47:33;;;;;;;0.40;0.20;;;;;;;20.12;67.52;99349.78;5014906;28;20452;-53
2021/05/10 08:50:03;;;;;;;0.40;0.20;;;;;;;19.97;67.85;99340.28;5014778;28;20868;-53
2021/05/10 08:52:30;;;;;;;0.40;0.30;;;;;;;20.06;67.87;99354.84;5014753;28;20471;-53
2021/05/10 08:54:57;;;;;;;0.40;0.20;;;;;;;20.21;67.36;99356.28;5015068;28;20441;-52
2021/05/10 08:57:23;;;;;;;0.40;0.20;;;;;;;20.23;66.96;99351.59;5001766;28;20489;-52
2021/05/10 08:59:49;;;;;;;0.40;0.20;;;;;;;20.26;67.22;99367.53;5015089;28;20491;-53
2021/05/10 09:02:15;;;;;;;0.40;0.20;;;;;;;19.94;68.42;99383.69;5025344;28;20472;-53
2021/05/10 09:04:43;;;;;;;0.50;0.30;;;;;;;20.06;68.19;99389.94;5001674;28;20449;-53
2021/05/10 09:07:23;;;;;;;0.40;0.20;;;;;;;19.96;67.97;99395.22;5014214;28;20538;-53
2021/05/10 09:09:53;;;;;;;0.40;0.20;;;;;;;19.86;68.88;99401.47;5013447;28;20498;-53
2021/05/10 09:12:21;;;;;;;0.40;0.20;;;;;;;19.70;70.15;99410.81;5014366;28;20559;-53
2021/05/10 09:14:47;;;;;;;0.40;0.20;;;;;;;19.73;69.02;99418.66;5014486;28;20453;-53
2021/05/10 09:17:13;;;;;;;0.40;0.20;;;;;;;19.74;69.04;99420.41;5014242;28;20452;-53
2021/05/10 09:19:45;;;;;;;0.40;0.20;;;;;;;19.65;69.20;99423.81;5004288;28;20456;-53
2021/05/10 09:22:12;;;;;;;0.40;0.20;;;;;;;19.40;68.76;99418.63;5011788;28;20490;-53
2021/05/10 09:24:46;;;;;;;0.40;0.20;;;;;;;19.58;68.25;99427.09;5014248;28;20453;-53
2021/05/10 09:27:24;;;;;;;0.40;0.20;;;;;;;19.34;67.87;99428.06;5014244;28;20452;-53
2021/05/10 09:29:51;;;;;;;0.40;0.20;;;;;;;19.41;68.94;99436.50;5013849;28;20455;-53
2021/05/10 09:32:29;;;;;;;0.40;0.27;;;;;;;19.53;68.54;99432.84;4983480;28;20907;-51
2021/05/10 09:35:25;;;;;;;0.40;0.20;;;;;;;19.35;69.04;99437.88;5013787;28;20933;-52
2021/05/10 09:37:57;;;;;;;0.40;0.20;;;;;;;19.19;69.72;99431.97;5014154;28;20441;-52
2021/05/10 09:40:27;;;;;;;0.40;0.20;;;;;;;19.16;70.38;99422.25;4993976;28;20485;-52
2021/05/10 09:43:07;;;;;;;0.40;0.20;;;;;;;19.12;70.44;99428.88;5009760;28;20887;-52
2021/05/10 09:45:39;;;;;;;0.40;0.20;;;;;;;19.04;71.61;99439.38;4996128;28;20456;-52
2021/05/10 09:48:07;;;;;;;30.97;1.23;;;;;;;19.01;71.80;99444.13;5010094;28;20465;-52
2021/05/10 09:50:41;;;;;;;0.40;0.20;;;;;;;19.19;71.35;99430.13;5003826;28;20461;-51
2021/05/10 09:53:12;;;;;;;0.40;0.20;;;;;;;19.37;71.41;99426.97;4995739;28;20459;-51
2021/05/10 09:55:58;;;;;;;0.40;0.20;;;;;;;19.48;70.78;99432.38;5013564;28;20480;-52
2021/05/10 09:58:40;;;;;;;0.40;0.20;;;;;;;19.51;71.29;99418.63;4994189;28;20449;-51
2021/05/10 10:01:07;;;;;;;0.40;0.20;;;;;;;19.15;72.85;99417.00;5012376;28;20838;-52
2021/05/10 10:03:44;;;;;;;0.40;0.20;;;;;;;19.28;73.63;99420.44;5012035;28;20473;-52
2021/05/10 10:06:16;;;;;;;0.40;0.20;;;;;;;19.43;72.65;99411.13;5012328;28;20459;-52
2021/05/10 10:08:44;;;;;;;0.40;0.20;;;;;;;19.17;74.22;99418.56;5013361;28;20510;-52
2021/05/10 10:11:13;;;;;;;0.40;0.20;;;;;;;19.39;73.62;99425.00;5013281;28;20452;-52
2021/05/10 10:13:39;;;;;;;0.43;0.37;;;;;;;19.16;74.60;99432.19;5013081;28;20469;-52
2021/05/10 10:16:07;;;;;;;0.40;0.20;;;;;;;19.11;74.09;99424.47;5012827;28;20483;-52
2021/05/10 10:18:39;;;;;;;0.40;0.20;;;;;;;19.17;73.99;99425.81;5012775;28;20480;-52
2021/05/10 10:21:07;;;;;;;0.40;0.20;;;;;;;19.07;74.32;99428.38;4993269;28;20525;-52
2021/05/10 10:23:35;;;;;;;0.40;0.20;;;;;;;19.02;75.41;99448.53;5007339;28;20472;-52
2021/05/10 10:26:04;;;;;;;0.40;0.20;;;;;;;19.00;75.12;99472.91;5012790;28;20514;-52
2021/05/10 10:28:32;;;;;;;0.40;0.20;;;;;;;19.13;74.98;99473.69;5012803;28;20824;-52
2021/05/10 10:31:12;;;;;;;0.97;0.90;;;;;;;18.89;76.98;99478.25;5013101;28;20452;-52
2021/05/10 10:33:52;;;;;;;0.40;0.20;;;;;;;19.00;76.12;99481.00;5012718;28;20496;-52
2021/05/10 10:36:31;;;;;;;0.50;0.40;;;;;;;18.94;75.44;99476.09;5013053;28;20598;-52
2021/05/10 10:39:23;;;;;;;0.40;0.20;;;;;;;19.17;74.45;99469.78;4993102;28;20457;-52
2021/05/10 10:42:20;;;;;;;0.50;0.40;;;;;;;18.99;74.81;99478.41;5010706;28;20495;-52
2021/05/10 10:44:57;;;;;;;0.40;0.20;;;;;;;19.01;75.98;99476.47;5012748;28;20511;-52
2021/05/10 10:47:44;;;;;;;0.40;0.20;;;;;;;19.06;76.60;99471.59;5012535;28;20960;-52
2021/05/10 10:50:10;;;;;;;0.40;0.20;;;;;;;19.23;75.29;99465.75;4999610;28;20518;-52
2021/05/10 10:52:57;;;;;;;0.40;0.20;;;;;;;19.11;76.00;99462.19;4995070;28;21050;-52
2021/05/10 10:55:30;;;;;;;0.40;0.20;;;;;;;18.91;75.70;99469.09;5012823;28;20840;-52
2021/05/10 10:58:22;;;;;;;0.40;0.20;;;;;;;19.00;75.92;99480.13;4999311;28;20456;-52
2021/05/10 11:01:09;;;;;;;0.40;0.20;;;;;;;19.02;76.14;99503.28;5006157;28;20507;-52
2021/05/10 11:03:37;;;;;;;0.40;0.20;;;;;;;18.86;77.67;99508.97;4993159;28;20469;-52
2021/05/10 11:06:05;;;;;;;0.40;0.20;;;;;;;18.79;79.79;99504.19;5010668;28;20457;-52
2021/05/10 11:08:44;;;;;;;0.40;0.20;;;;;;;18.63;82.24;99516.06;5012805;28;20506;-52
2021/05/10 11:11:12;;;;;;;0.40;0.20;;;;;;;18.76;81.48;99501.69;4993083;28;20460;-52
2021/05/10 11:13:40;;;;;;;0.40;0.20;;;;;;;18.54;80.93;99518.56;5006556;28;20538;-52
2021/05/10 11:16:14;;;;;;;0.40;0.20;;;;;;;18.70;79.70;99521.00;5012741;28;20460;-52
2021/05/10 11:18:48;;;;;;;0.40;0.20;;;;;;;18.59;80.79;99529.84;5010568;28;20448;-52
2021/05/10 11:21:38;;;;;;;0.40;0.27;;;;;;;18.69;80.11;99514.78;5002322;28;20893;-52
2021/05/10 11:24:09;;;;;;;0.40;0.20;;;;;;;18.49;80.74;99535.03;4987693;28;20507;-52
2021/05/10 11:26:52;;;;;;;0.40;0.20;;;;;;;18.44;80.70;99514.81;5012737;28;20507;-52
2021/05/10 11:29:24;;;;;;;0.40;0.20;;;;;;;18.78;80.26;99513.25;5012417;28;20456;-52
2021/05/10 11:31:51;;;;;;;0.40;0.20;;;;;;;18.60;83.03;99510.88;5012325;28;20472;-52
2021/05/10 11:34:28;;;;;;;0.40;0.20;;;;;;;18.56;84.08;99504.03;5014584;28;20967;-52
2021/05/10 11:36:55;;;;;;;0.40;0.20;;;;;;;18.45;84.40;99500.41;5016048;28;20452;-52
2021/05/10 11:39:27;;;;;;;0.43;0.30;;;;;;;18.31;84.44;99515.72;5016077;28;20459;-52
2021/05/10 11:41:56;;;;;;;0.40;0.20;;;;;;;18.05;84.37;99530.19;5015927;28;20496;-52
2021/05/10 11:44:24;;;;;;;0.40;0.20;;;;;;;18.31;83.51;99548.00;5016200;28;20603;-52
2021/05/10 11:46:55;;;;;;;0.40;0.20;;;;;;;18.32;82.94;99556.94;5015905;28;20453;-52